sensor_id;sensor_type;location;lat;lon;timestamp;P1;durP1;ratioP1;P2;durP2;ratioP2
31126;SDS011;17775;57.948;12.514;2023-02-28T00:00:10;6.82;;;2.33;;
31126;SDS011;17775;57.948;12.514;2023-02-28T00:02:37;5.28;;;2.47;;
31126;SDS011;17775;57.948;12.514;2023-02-28T00:05:04;5.35;;;2.38;;
31126;SDS011;17775;57.948;12.514;2023-02-28T00:07:32;4.63;;;2.60;;
31126;SDS011;17775;57.948;12.514;2023-02-28T00:09:59;9.23;;;2.58;;
31126;SDS011;17775;57.948;12.514;2023-02-28T00:12:26;5.30;;;2.75;;
31126;SDS011;17775;57.948;12.514;2023-02-28T00:14:52;5.70;;;3.50;;
31126;SDS011;17775;57.948;12.514;2023-02-28T00:17:19;8.63;;;2.90;;
31126;SDS011;17775;57.948;12.514;2023-02-28T00:19:47;5.68;;;2.67;;
31126;SDS011;17775;57.948;12.514;2023-02-28T00:22:18;5.25;;;2.65;;
31126;SDS011;17775;57.948;12.514;2023-02-28T00:24:45;6.50;;;2.97;;
31126;SDS011;17775;57.948;12.514;2023-02-28T00:27:12;5.05;;;2.38;;
31126;SDS011;17775;57.948;12.514;2023-02-28T00:29:38;4.13;;;2.20;;
31126;SDS011;17775;57.948;12.514;2023-02-28T00:32:05;5.65;;;2.47;;
31126;SDS011;17775;57.948;12.514;2023-02-28T00:34:40;4.75;;;2.13;;
31126;SDS011;17775;57.948;12.514;2023-02-28T00:37:07;4.32;;;2.38;;
31126;SDS011;17775;57.948;12.514;2023-02-28T00:39:34;5.38;;;2.55;;
31126;SDS011;17775;57.948;12.514;2023-02-28T00:42:01;5.43;;;2.00;;
31126;SDS011;17775;57.948;12.514;2023-02-28T00:44:28;5.82;;;2.47;;
31126;SDS011;17775;57.948;12.514;2023-02-28T00:46:55;5.60;;;2.53;;
31126;SDS011;17775;57.948;12.514;2023-02-28T00:49:22;5.43;;;2.40;;
31126;SDS011;17775;57.948;12.514;2023-02-28T00:51:49;5.38;;;3.55;;
31126;SDS011;17775;57.948;12.514;2023-02-28T00:54:15;4.78;;;2.33;;
31126;SDS011;17775;57.948;12.514;2023-02-28T00:56:42;6.65;;;2.65;;
31126;SDS011;17775;57.948;12.514;2023-02-28T00:59:08;7.07;;;2.90;;
31126;SDS011;17775;57.948;12.514;2023-02-28T01:01:35;5.35;;;3.08;;
31126;SDS011;17775;57.948;12.514;2023-02-28T01:04:01;6.60;;;2.80;;
31126;SDS011;17775;57.948;12.514;2023-02-28T01:06:28;3.92;;;2.30;;
31126;SDS011;17775;57.948;12.514;2023-02-28T01:08:54;7.43;;;2.63;;
31126;SDS011;17775;57.948;12.514;2023-02-28T01:11:21;4.15;;;2.67;;
31126;SDS011;17775;57.948;12.514;2023-02-28T01:13:47;4.50;;;2.42;;
31126;SDS011;17775;57.948;12.514;2023-02-28T01:16:14;7.10;;;2.70;;
31126;SDS011;17775;57.948;12.514;2023-02-28T01:18:41;7.00;;;2.53;;
31126;SDS011;17775;57.948;12.514;2023-02-28T01:21:09;7.63;;;2.72;;
31126;SDS011;17775;57.948;12.514;2023-02-28T01:23:36;4.88;;;2.63;;
31126;SDS011;17775;57.948;12.514;2023-02-28T01:26:03;4.88;;;2.63;;
31126;SDS011;17775;57.948;12.514;2023-02-28T01:28:30;4.75;;;2.42;;
31126;SDS011;17775;57.948;12.514;2023-02-28T01:30:56;5.88;;;2.63;;
31126;SDS011;17775;57.948;12.514;2023-02-28T01:33:23;6.07;;;2.70;;
31126;SDS011;17775;57.948;12.514;2023-02-28T01:35:49;7.03;;;3.10;;
31126;SDS011;17775;57.948;12.514;2023-02-28T01:38:16;6.05;;;2.72;;
31126;SDS011;17775;57.948;12.514;2023-02-28T01:40:48;8.32;;;2.80;;
31126;SDS011;17775;57.948;12.514;2023-02-28T01:43:22;6.78;;;3.38;;
31126;SDS011;17775;57.948;12.514;2023-02-28T01:45:49;7.38;;;3.40;;
31126;SDS011;17775;57.948;12.514;2023-02-28T01:48:20;7.03;;;2.97;;
31126;SDS011;17775;57.948;12.514;2023-02-28T01:50:47;6.40;;;2.90;;
31126;SDS011;17775;57.948;12.514;2023-02-28T01:53:16;5.05;;;2.53;;
31126;SDS011;17775;57.948;12.514;2023-02-28T01:55:45;6.63;;;2.33;;
31126;SDS011;17775;57.948;12.514;2023-02-28T01:58:12;7.18;;;2.70;;
31126;SDS011;17775;57.948;12.514;2023-02-28T02:00:39;4.45;;;2.30;;
31126;SDS011;17775;57.948;12.514;2023-02-28T02:03:09;7.00;;;2.40;;
31126;SDS011;17775;57.948;12.514;2023-02-28T02:05:37;6.13;;;2.70;;
31126;SDS011;17775;57.948;12.514;2023-02-28T02:08:05;5.07;;;2.75;;
31126;SDS011;17775;57.948;12.514;2023-02-28T02:15:46;6.93;;;2.35;;
31126;SDS011;17775;57.948;12.514;2023-02-28T02:21:15;3.80;;;2.10;;
31126;SDS011;17775;57.948;12.514;2023-02-28T02:23:51;4.85;;;2.35;;
31126;SDS011;17775;57.948;12.514;2023-02-28T02:29:00;3.85;;;1.80;;
31126;SDS011;17775;57.948;12.514;2023-02-28T02:34:29;7.57;;;2.17;;
31126;SDS011;17775;57.948;12.514;2023-02-28T02:39:50;5.38;;;2.45;;
31126;SDS011;17775;57.948;12.514;2023-02-28T02:42:21;4.55;;;2.03;;
31126;SDS011;17775;57.948;12.514;2023-02-28T02:45:01;4.47;;;2.47;;
31126;SDS011;17775;57.948;12.514;2023-02-28T02:47:29;4.15;;;1.92;;
31126;SDS011;17775;57.948;12.514;2023-02-28T02:49:57;4.68;;;2.25;;
31126;SDS011;17775;57.948;12.514;2023-02-28T02:52:29;4.82;;;2.00;;
31126;SDS011;17775;57.948;12.514;2023-02-28T02:54:57;5.63;;;2.38;;
31126;SDS011;17775;57.948;12.514;2023-02-28T02:57:36;5.63;;;2.20;;
31126;SDS011;17775;57.948;12.514;2023-02-28T03:00:05;6.35;;;2.60;;
31126;SDS011;17775;57.948;12.514;2023-02-28T03:02:35;6.15;;;2.28;;
31126;SDS011;17775;57.948;12.514;2023-02-28T03:05:06;4.88;;;2.15;;
31126;SDS011;17775;57.948;12.514;2023-02-28T03:07:34;5.30;;;1.98;;
31126;SDS011;17775;57.948;12.514;2023-02-28T03:10:01;4.10;;;2.60;;
31126;SDS011;17775;57.948;12.514;2023-02-28T03:12:33;4.38;;;2.28;;
31126;SDS011;17775;57.948;12.514;2023-02-28T03:20:36;4.40;;;2.08;;
31126;SDS011;17775;57.948;12.514;2023-02-28T03:23:16;7.65;;;2.60;;
31126;SDS011;17775;57.948;12.514;2023-02-28T03:25:52;5.20;;;2.10;;
31126;SDS011;17775;57.948;12.514;2023-02-28T03:30:59;2.88;;;1.67;;
31126;SDS011;17775;57.948;12.514;2023-02-28T03:33:28;3.92;;;2.05;;
31126;SDS011;17775;57.948;12.514;2023-02-28T03:35:57;4.55;;;2.00;;
31126;SDS011;17775;57.948;12.514;2023-02-28T03:38:47;3.97;;;2.30;;
31126;SDS011;17775;57.948;12.514;2023-02-28T03:41:13;3.10;;;2.03;;
31126;SDS011;17775;57.948;12.514;2023-02-28T03:43:41;4.05;;;2.38;;
31126;SDS011;17775;57.948;12.514;2023-02-28T03:46:09;5.22;;;2.10;;
31126;SDS011;17775;57.948;12.514;2023-02-28T03:48:42;4.85;;;2.13;;
31126;SDS011;17775;57.948;12.514;2023-02-28T03:51:10;5.57;;;2.25;;
31126;SDS011;17775;57.948;12.514;2023-02-28T03:53:39;5.03;;;2.42;;
31126;SDS011;17775;57.948;12.514;2023-02-28T03:56:22;5.88;;;2.40;;
31126;SDS011;17775;57.948;12.514;2023-02-28T04:01:37;4.53;;;2.15;;
31126;SDS011;17775;57.948;12.514;2023-02-28T04:04:04;5.30;;;2.63;;
31126;SDS011;17775;57.948;12.514;2023-02-28T04:06:31;5.70;;;2.67;;
31126;SDS011;17775;57.948;12.514;2023-02-28T04:08:58;5.97;;;2.67;;
31126;SDS011;17775;57.948;12.514;2023-02-28T04:11:45;5.85;;;2.67;;
31126;SDS011;17775;57.948;12.514;2023-02-28T04:14:12;5.47;;;2.60;;
31126;SDS011;17775;57.948;12.514;2023-02-28T04:16:40;4.78;;;2.70;;
31126;SDS011;17775;57.948;12.514;2023-02-28T04:19:07;4.30;;;2.35;;
31126;SDS011;17775;57.948;12.514;2023-02-28T04:21:35;5.88;;;2.63;;
31126;SDS011;17775;57.948;12.514;2023-02-28T04:24:04;5.15;;;2.03;;
31126;SDS011;17775;57.948;12.514;2023-02-28T04:26:33;4.97;;;2.50;;
31126;SDS011;17775;57.948;12.514;2023-02-28T04:29:00;3.72;;;2.05;;
31126;SDS011;17775;57.948;12.514;2023-02-28T04:31:27;4.30;;;2.40;;
31126;SDS011;17775;57.948;12.514;2023-02-28T04:33:54;4.47;;;2.30;;
31126;SDS011;17775;57.948;12.514;2023-02-28T04:36:21;4.97;;;2.65;;
31126;SDS011;17775;57.948;12.514;2023-02-28T04:38:52;5.15;;;2.10;;
31126;SDS011;17775;57.948;12.514;2023-02-28T04:41:18;6.37;;;2.13;;
31126;SDS011;17775;57.948;12.514;2023-02-28T04:43:45;6.82;;;2.65;;
31126;SDS011;17775;57.948;12.514;2023-02-28T04:46:11;5.32;;;2.40;;
31126;SDS011;17775;57.948;12.514;2023-02-28T04:48:38;7.75;;;2.55;;
31126;SDS011;17775;57.948;12.514;2023-02-28T04:51:06;4.60;;;2.50;;
31126;SDS011;17775;57.948;12.514;2023-02-28T04:53:34;5.85;;;2.95;;
31126;SDS011;17775;57.948;12.514;2023-02-28T04:56:04;4.93;;;2.53;;
31126;SDS011;17775;57.948;12.514;2023-02-28T04:58:31;6.63;;;2.45;;
31126;SDS011;17775;57.948;12.514;2023-02-28T05:01:05;4.00;;;2.08;;
31126;SDS011;17775;57.948;12.514;2023-02-28T05:03:39;4.82;;;2.30;;
31126;SDS011;17775;57.948;12.514;2023-02-28T05:06:07;5.47;;;1.90;;
31126;SDS011;17775;57.948;12.514;2023-02-28T05:08:34;5.55;;;2.58;;
31126;SDS011;17775;57.948;12.514;2023-02-28T05:11:00;5.60;;;2.80;;
31126;SDS011;17775;57.948;12.514;2023-02-28T05:13:27;5.70;;;2.67;;
31126;SDS011;17775;57.948;12.514;2023-02-28T05:15:54;6.38;;;2.75;;
31126;SDS011;17775;57.948;12.514;2023-02-28T05:18:21;6.07;;;3.25;;
31126;SDS011;17775;57.948;12.514;2023-02-28T05:20:47;8.60;;;3.65;;
31126;SDS011;17775;57.948;12.514;2023-02-28T05:23:17;7.68;;;3.30;;
31126;SDS011;17775;57.948;12.514;2023-02-28T05:25:46;9.50;;;3.38;;
31126;SDS011;17775;57.948;12.514;2023-02-28T05:28:12;7.78;;;3.28;;
31126;SDS011;17775;57.948;12.514;2023-02-28T05:30:38;7.65;;;3.00;;
31126;SDS011;17775;57.948;12.514;2023-02-28T05:33:05;8.32;;;3.47;;
31126;SDS011;17775;57.948;12.514;2023-02-28T05:35:31;5.78;;;3.33;;
31126;SDS011;17775;57.948;12.514;2023-02-28T05:37:58;6.55;;;3.15;;
31126;SDS011;17775;57.948;12.514;2023-02-28T05:40:26;9.82;;;3.88;;
31126;SDS011;17775;57.948;12.514;2023-02-28T05:42:53;8.15;;;3.53;;
31126;SDS011;17775;57.948;12.514;2023-02-28T05:45:19;8.00;;;3.30;;
31126;SDS011;17775;57.948;12.514;2023-02-28T05:47:46;6.03;;;2.60;;
31126;SDS011;17775;57.948;12.514;2023-02-28T05:50:12;5.63;;;2.92;;
31126;SDS011;17775;57.948;12.514;2023-02-28T05:52:39;6.60;;;2.90;;
31126;SDS011;17775;57.948;12.514;2023-02-28T05:55:05;5.53;;;2.63;;
31126;SDS011;17775;57.948;12.514;2023-02-28T05:57:32;5.70;;;2.35;;
31126;SDS011;17775;57.948;12.514;2023-02-28T05:59:58;6.13;;;2.63;;
31126;SDS011;17775;57.948;12.514;2023-02-28T06:02:25;5.43;;;3.17;;
31126;SDS011;17775;57.948;12.514;2023-02-28T06:04:51;5.90;;;3.00;;
31126;SDS011;17775;57.948;12.514;2023-02-28T06:07:18;5.53;;;2.80;;
31126;SDS011;17775;57.948;12.514;2023-02-28T06:09:44;4.15;;;2.42;;
31126;SDS011;17775;57.948;12.514;2023-02-28T06:12:11;6.40;;;2.35;;
31126;SDS011;17775;57.948;12.514;2023-02-28T06:14:37;5.50;;;2.53;;
31126;SDS011;17775;57.948;12.514;2023-02-28T06:17:04;4.65;;;2.47;;
31126;SDS011;17775;57.948;12.514;2023-02-28T06:19:30;4.22;;;2.10;;
31126;SDS011;17775;57.948;12.514;2023-02-28T06:21:57;3.83;;;2.13;;
31126;SDS011;17775;57.948;12.514;2023-02-28T06:24:26;8.07;;;2.72;;
31126;SDS011;17775;57.948;12.514;2023-02-28T06:26:54;6.63;;;3.00;;
31126;SDS011;17775;57.948;12.514;2023-02-28T06:29:20;4.78;;;2.72;;
31126;SDS011;17775;57.948;12.514;2023-02-28T06:31:47;8.82;;;2.75;;
31126;SDS011;17775;57.948;12.514;2023-02-28T06:34:14;6.75;;;3.28;;
31126;SDS011;17775;57.948;12.514;2023-02-28T06:36:41;6.25;;;2.72;;
31126;SDS011;17775;57.948;12.514;2023-02-28T06:39:08;6.40;;;2.72;;
31126;SDS011;17775;57.948;12.514;2023-02-28T06:41:36;5.65;;;2.95;;
31126;SDS011;17775;57.948;12.514;2023-02-28T06:44:20;5.72;;;2.33;;
31126;SDS011;17775;57.948;12.514;2023-02-28T06:46:46;4.90;;;2.30;;
31126;SDS011;17775;57.948;12.514;2023-02-28T06:49:13;4.38;;;2.55;;
31126;SDS011;17775;57.948;12.514;2023-02-28T06:51:41;3.22;;;1.98;;
31126;SDS011;17775;57.948;12.514;2023-02-28T06:54:07;8.35;;;3.17;;
31126;SDS011;17775;57.948;12.514;2023-02-28T06:56:37;7.38;;;3.50;;
31126;SDS011;17775;57.948;12.514;2023-02-28T06:59:03;5.68;;;3.28;;
31126;SDS011;17775;57.948;12.514;2023-02-28T07:01:30;12.93;;;2.97;;
31126;SDS011;17775;57.948;12.514;2023-02-28T07:03:58;9.82;;;3.03;;
31126;SDS011;17775;57.948;12.514;2023-02-28T07:06:26;13.27;;;3.63;;
31126;SDS011;17775;57.948;12.514;2023-02-28T07:08:53;10.73;;;3.42;;
31126;SDS011;17775;57.948;12.514;2023-02-28T07:11:24;10.23;;;3.15;;
31126;SDS011;17775;57.948;12.514;2023-02-28T07:13:55;7.72;;;3.70;;
31126;SDS011;17775;57.948;12.514;2023-02-28T07:16:22;7.68;;;3.58;;
31126;SDS011;17775;57.948;12.514;2023-02-28T07:18:52;8.40;;;3.38;;
31126;SDS011;17775;57.948;12.514;2023-02-28T07:21:19;9.30;;;3.30;;
31126;SDS011;17775;57.948;12.514;2023-02-28T07:23:45;7.22;;;3.00;;
31126;SDS011;17775;57.948;12.514;2023-02-28T07:26:13;6.68;;;2.95;;
31126;SDS011;17775;57.948;12.514;2023-02-28T07:28:44;8.10;;;2.90;;
31126;SDS011;17775;57.948;12.514;2023-02-28T07:31:11;5.32;;;2.90;;
31126;SDS011;17775;57.948;12.514;2023-02-28T07:33:38;4.93;;;2.70;;
31126;SDS011;17775;57.948;12.514;2023-02-28T07:36:06;6.82;;;2.83;;
31126;SDS011;17775;57.948;12.514;2023-02-28T07:38:36;8.30;;;2.67;;
31126;SDS011;17775;57.948;12.514;2023-02-28T07:43:34;6.43;;;3.15;;
31126;SDS011;17775;57.948;12.514;2023-02-28T07:46:11;6.28;;;3.00;;
31126;SDS011;17775;57.948;12.514;2023-02-28T07:48:38;5.75;;;3.00;;
31126;SDS011;17775;57.948;12.514;2023-02-28T07:51:04;10.52;;;3.20;;
31126;SDS011;17775;57.948;12.514;2023-02-28T07:53:31;7.68;;;3.47;;
31126;SDS011;17775;57.948;12.514;2023-02-28T07:55:58;5.28;;;3.17;;
31126;SDS011;17775;57.948;12.514;2023-02-28T07:58:25;5.35;;;3.22;;
31126;SDS011;17775;57.948;12.514;2023-02-28T08:00:52;4.55;;;2.38;;
31126;SDS011;17775;57.948;12.514;2023-02-28T08:03:19;8.13;;;3.08;;
31126;SDS011;17775;57.948;12.514;2023-02-28T08:05:46;5.25;;;2.75;;
31126;SDS011;17775;57.948;12.514;2023-02-28T08:08:14;5.43;;;2.78;;
31126;SDS011;17775;57.948;12.514;2023-02-28T08:10:40;5.65;;;3.20;;
31126;SDS011;17775;57.948;12.514;2023-02-28T08:13:07;5.32;;;3.13;;
31126;SDS011;17775;57.948;12.514;2023-02-28T08:15:33;7.35;;;3.33;;
31126;SDS011;17775;57.948;12.514;2023-02-28T08:18:00;4.10;;;2.45;;
31126;SDS011;17775;57.948;12.514;2023-02-28T08:20:29;4.10;;;2.35;;
31126;SDS011;17775;57.948;12.514;2023-02-28T08:22:55;4.63;;;2.53;;
31126;SDS011;17775;57.948;12.514;2023-02-28T08:25:22;3.88;;;2.53;;
31126;SDS011;17775;57.948;12.514;2023-02-28T08:27:50;5.40;;;2.40;;
31126;SDS011;17775;57.948;12.514;2023-02-28T08:30:16;5.63;;;2.88;;
31126;SDS011;17775;57.948;12.514;2023-02-28T08:32:43;6.93;;;2.90;;
31126;SDS011;17775;57.948;12.514;2023-02-28T08:35:09;5.45;;;2.72;;
31126;SDS011;17775;57.948;12.514;2023-02-28T08:37:36;5.63;;;2.33;;
31126;SDS011;17775;57.948;12.514;2023-02-28T08:40:03;3.80;;;2.20;;
31126;SDS011;17775;57.948;12.514;2023-02-28T08:42:30;4.63;;;2.45;;
31126;SDS011;17775;57.948;12.514;2023-02-28T08:44:58;5.72;;;2.83;;
31126;SDS011;17775;57.948;12.514;2023-02-28T08:47:24;2.80;;;1.90;;
31126;SDS011;17775;57.948;12.514;2023-02-28T08:49:51;4.97;;;2.20;;
31126;SDS011;17775;57.948;12.514;2023-02-28T08:52:17;7.38;;;2.72;;
31126;SDS011;17775;57.948;12.514;2023-02-28T08:54:43;3.25;;;1.67;;
31126;SDS011;17775;57.948;12.514;2023-02-28T08:57:10;3.45;;;1.90;;
31126;SDS011;17775;57.948;12.514;2023-02-28T08:59:36;4.35;;;2.40;;
31126;SDS011;17775;57.948;12.514;2023-02-28T09:02:03;3.70;;;1.90;;
31126;SDS011;17775;57.948;12.514;2023-02-28T09:04:29;2.90;;;1.73;;
31126;SDS011;17775;57.948;12.514;2023-02-28T09:06:57;3.75;;;1.90;;
31126;SDS011;17775;57.948;12.514;2023-02-28T09:09:23;4.30;;;2.00;;
31126;SDS011;17775;57.948;12.514;2023-02-28T09:11:50;3.78;;;2.05;;
31126;SDS011;17775;57.948;12.514;2023-02-28T09:14:16;3.53;;;2.00;;
31126;SDS011;17775;57.948;12.514;2023-02-28T09:16:43;4.63;;;1.83;;
31126;SDS011;17775;57.948;12.514;2023-02-28T09:19:11;3.33;;;1.90;;
31126;SDS011;17775;57.948;12.514;2023-02-28T09:21:37;3.63;;;1.95;;
31126;SDS011;17775;57.948;12.514;2023-02-28T09:24:03;3.92;;;1.98;;
31126;SDS011;17775;57.948;12.514;2023-02-28T09:26:30;4.10;;;1.63;;
31126;SDS011;17775;57.948;12.514;2023-02-28T09:29:08;5.72;;;2.00;;
31126;SDS011;17775;57.948;12.514;2023-02-28T09:31:34;6.60;;;1.70;;
31126;SDS011;17775;57.948;12.514;2023-02-28T09:34:00;4.05;;;1.95;;
31126;SDS011;17775;57.948;12.514;2023-02-28T09:36:27;3.28;;;1.75;;
31126;SDS011;17775;57.948;12.514;2023-02-28T09:39:09;3.75;;;1.67;;
31126;SDS011;17775;57.948;12.514;2023-02-28T09:41:40;3.30;;;1.60;;
31126;SDS011;17775;57.948;12.514;2023-02-28T09:44:16;3.70;;;1.55;;
31126;SDS011;17775;57.948;12.514;2023-02-28T09:46:48;2.65;;;1.50;;
31126;SDS011;17775;57.948;12.514;2023-02-28T09:49:19;4.43;;;1.77;;
31126;SDS011;17775;57.948;12.514;2023-02-28T09:52:07;5.35;;;1.50;;
31126;SDS011;17775;57.948;12.514;2023-02-28T09:54:36;5.47;;;1.75;;
31126;SDS011;17775;57.948;12.514;2023-02-28T09:59:36;3.10;;;1.20;;
31126;SDS011;17775;57.948;12.514;2023-02-28T10:04:50;3.25;;;1.10;;
31126;SDS011;17775;57.948;12.514;2023-02-28T10:09:56;3.42;;;1.25;;
31126;SDS011;17775;57.948;12.514;2023-02-28T10:12:23;2.22;;;1.35;;
31126;SDS011;17775;57.948;12.514;2023-02-28T10:14:51;2.25;;;1.15;;
31126;SDS011;17775;57.948;12.514;2023-02-28T10:17:23;4.40;;;1.40;;
31126;SDS011;17775;57.948;12.514;2023-02-28T10:22:22;3.78;;;1.30;;
31126;SDS011;17775;57.948;12.514;2023-02-28T10:24:51;3.88;;;2.10;;
31126;SDS011;17775;57.948;12.514;2023-02-28T10:27:19;3.03;;;1.60;;
31126;SDS011;17775;57.948;12.514;2023-02-28T10:29:46;4.15;;;1.48;;
31126;SDS011;17775;57.948;12.514;2023-02-28T10:32:24;4.50;;;1.30;;
31126;SDS011;17775;57.948;12.514;2023-02-28T10:37:23;1.80;;;1.00;;
31126;SDS011;17775;57.948;12.514;2023-02-28T10:39:52;3.25;;;1.38;;
31126;SDS011;17775;57.948;12.514;2023-02-28T10:44:48;2.00;;;1.27;;
31126;SDS011;17775;57.948;12.514;2023-02-28T10:47:17;3.05;;;1.23;;
31126;SDS011;17775;57.948;12.514;2023-02-28T10:49:47;2.60;;;1.38;;
31126;SDS011;17775;57.948;12.514;2023-02-28T10:54:41;2.55;;;1.20;;
31126;SDS011;17775;57.948;12.514;2023-02-28T10:57:16;3.00;;;1.55;;
31126;SDS011;17775;57.948;12.514;2023-02-28T10:59:44;5.63;;;1.50;;
31126;SDS011;17775;57.948;12.514;2023-02-28T11:04:55;3.55;;;1.23;;
31126;SDS011;17775;57.948;12.514;2023-02-28T11:07:22;3.65;;;1.15;;
31126;SDS011;17775;57.948;12.514;2023-02-28T11:09:51;9.30;;;1.60;;
31126;SDS011;17775;57.948;12.514;2023-02-28T11:12:36;2.72;;;1.20;;
31126;SDS011;17775;57.948;12.514;2023-02-28T11:17:52;2.78;;;1.23;;
31126;SDS011;17775;57.948;12.514;2023-02-28T11:20:23;4.30;;;2.35;;
31126;SDS011;17775;57.948;12.514;2023-02-28T11:22:54;4.40;;;1.40;;
31126;SDS011;17775;57.948;12.514;2023-02-28T11:25:22;3.58;;;1.65;;
31126;SDS011;17775;57.948;12.514;2023-02-28T11:27:50;7.45;;;2.40;;
31126;SDS011;17775;57.948;12.514;2023-02-28T11:32:53;2.30;;;1.27;;
31126;SDS011;17775;57.948;12.514;2023-02-28T11:35:28;5.68;;;1.35;;
31126;SDS011;17775;57.948;12.514;2023-02-28T11:37:56;3.08;;;1.10;;
31126;SDS011;17775;57.948;12.514;2023-02-28T11:40:26;2.30;;;1.20;;
31126;SDS011;17775;57.948;12.514;2023-02-28T11:43:08;2.53;;;1.08;;
31126;SDS011;17775;57.948;12.514;2023-02-28T12:19:20;1.90;;;0.90;;
31126;SDS011;17775;57.948;12.514;2023-02-28T12:22:03;1.88;;;0.82;;
31126;SDS011;17775;57.948;12.514;2023-02-28T12:27:05;1.92;;;1.08;;
31126;SDS011;17775;57.948;12.514;2023-02-28T12:29:55;3.83;;;1.13;;
31126;SDS011;17775;57.948;12.514;2023-02-28T12:32:21;4.50;;;1.00;;
31126;SDS011;17775;57.948;12.514;2023-02-28T12:34:51;2.60;;;0.80;;
31126;SDS011;17775;57.948;12.514;2023-02-28T12:37:22;7.53;;;1.60;;
31126;SDS011;17775;57.948;12.514;2023-02-28T12:39:54;2.03;;;0.82;;
31126;SDS011;17775;57.948;12.514;2023-02-28T12:42:26;2.78;;;1.27;;
31126;SDS011;17775;57.948;12.514;2023-02-28T12:45:01;1.40;;;0.90;;
31126;SDS011;17775;57.948;12.514;2023-02-28T12:47:28;1.58;;;0.77;;
31126;SDS011;17775;57.948;12.514;2023-02-28T13:00:13;5.78;;;1.10;;
31126;SDS011;17775;57.948;12.514;2023-02-28T13:05:12;2.25;;;1.15;;
31126;SDS011;17775;57.948;12.514;2023-02-28T13:10:21;2.47;;;1.23;;
31126;SDS011;17775;57.948;12.514;2023-02-28T13:12:48;1.13;;;0.90;;
31126;SDS011;17775;57.948;12.514;2023-02-28T13:17:51;4.65;;;1.27;;
31126;SDS011;17775;57.948;12.514;2023-02-28T13:20:24;1.75;;;1.17;;
31126;SDS011;17775;57.948;12.514;2023-02-28T13:22:52;2.85;;;1.23;;
31126;SDS011;17775;57.948;12.514;2023-02-28T13:27:54;3.90;;;1.30;;
31126;SDS011;17775;57.948;12.514;2023-02-28T13:36:10;1.55;;;1.08;;
31126;SDS011;17775;57.948;12.514;2023-02-28T13:38:38;1.90;;;0.95;;
31126;SDS011;17775;57.948;12.514;2023-02-28T13:44:00;3.65;;;1.00;;
31126;SDS011;17775;57.948;12.514;2023-02-28T13:46:28;1.98;;;1.40;;
31126;SDS011;17775;57.948;12.514;2023-02-28T13:49:37;1.40;;;1.02;;
31126;SDS011;17775;57.948;12.514;2023-02-28T13:51:48;1.35;;;0.90;;
31126;SDS011;17775;57.948;12.514;2023-02-28T13:54:22;0.88;;;0.70;;
31126;SDS011;17775;57.948;12.514;2023-02-28T13:56:53;0.60;;;0.60;;
31126;SDS011;17775;57.948;12.514;2023-02-28T13:59:43;1.20;;;0.68;;
31126;SDS011;17775;57.948;12.514;2023-02-28T14:07:52;5.18;;;1.10;;
31126;SDS011;17775;57.948;12.514;2023-02-28T14:10:23;4.35;;;1.50;;
31126;SDS011;17775;57.948;12.514;2023-02-28T14:12:55;8.82;;;1.20;;
31126;SDS011;17775;57.948;12.514;2023-02-28T14:17:55;2.67;;;1.40;;
31126;SDS011;17775;57.948;12.514;2023-02-28T14:20:22;2.25;;;1.02;;
31126;SDS011;17775;57.948;12.514;2023-02-28T14:28:18;1.27;;;0.60;;
31126;SDS011;17775;57.948;12.514;2023-02-28T14:38:40;3.08;;;0.80;;
31126;SDS011;17775;57.948;12.514;2023-02-28T14:43:55;1.63;;;0.90;;
31126;SDS011;17775;57.948;12.514;2023-02-28T14:46:23;8.20;;;0.90;;
31126;SDS011;17775;57.948;12.514;2023-02-28T14:48:51;3.90;;;0.88;;
31126;SDS011;17775;57.948;12.514;2023-02-28T14:51:18;1.38;;;0.82;;
31126;SDS011;17775;57.948;12.514;2023-02-28T14:53:47;1.65;;;0.70;;
31126;SDS011;17775;57.948;12.514;2023-02-28T14:56:19;8.30;;;1.52;;
31126;SDS011;17775;57.948;12.514;2023-02-28T14:58:51;12.10;;;1.58;;
31126;SDS011;17775;57.948;12.514;2023-02-28T15:01:18;8.32;;;2.03;;
31126;SDS011;17775;57.948;12.514;2023-02-28T15:03:45;2.00;;;0.70;;
31126;SDS011;17775;57.948;12.514;2023-02-28T15:06:17;1.20;;;0.60;;
31126;SDS011;17775;57.948;12.514;2023-02-28T15:11:14;3.95;;;0.60;;
31126;SDS011;17775;57.948;12.514;2023-02-28T15:13:50;4.05;;;0.68;;
31126;SDS011;17775;57.948;12.514;2023-02-28T15:16:17;1.25;;;0.60;;
31126;SDS011;17775;57.948;12.514;2023-02-28T15:18:46;1.15;;;0.40;;
31126;SDS011;17775;57.948;12.514;2023-02-28T15:21:21;0.93;;;0.50;;
31126;SDS011;17775;57.948;12.514;2023-02-28T15:23:49;2.60;;;0.70;;
31126;SDS011;17775;57.948;12.514;2023-02-28T15:26:17;1.10;;;0.45;;
31126;SDS011;17775;57.948;12.514;2023-02-28T15:28:45;0.98;;;0.65;;
31126;SDS011;17775;57.948;12.514;2023-02-28T15:31:21;0.85;;;0.40;;
31126;SDS011;17775;57.948;12.514;2023-02-28T15:33:54;1.23;;;0.50;;
31126;SDS011;17775;57.948;12.514;2023-02-28T15:36:20;1.17;;;0.40;;
31126;SDS011;17775;57.948;12.514;2023-02-28T15:38:51;1.80;;;0.63;;
31126;SDS011;17775;57.948;12.514;2023-02-28T15:41:25;4.05;;;0.60;;
31126;SDS011;17775;57.948;12.514;2023-02-28T15:46:39;2.40;;;0.50;;
31126;SDS011;17775;57.948;12.514;2023-02-28T15:49:12;3.95;;;1.27;;
31126;SDS011;17775;57.948;12.514;2023-02-28T15:51:43;0.82;;;0.40;;
31126;SDS011;17775;57.948;12.514;2023-02-28T15:54:14;1.70;;;0.40;;
31126;SDS011;17775;57.948;12.514;2023-02-28T15:56:43;2.88;;;0.60;;
31126;SDS011;17775;57.948;12.514;2023-02-28T15:59:21;1.05;;;0.73;;
31126;SDS011;17775;57.948;12.514;2023-02-28T16:02:01;0.70;;;0.50;;
31126;SDS011;17775;57.948;12.514;2023-02-28T16:04:30;7.63;;;0.80;;
31126;SDS011;17775;57.948;12.514;2023-02-28T16:09:24;10.63;;;1.35;;
31126;SDS011;17775;57.948;12.514;2023-02-28T16:11:51;2.78;;;0.60;;
31126;SDS011;17775;57.948;12.514;2023-02-28T16:14:20;12.35;;;1.00;;
31126;SDS011;17775;57.948;12.514;2023-02-28T16:16:49;1.53;;;0.80;;
31126;SDS011;17775;57.948;12.514;2023-02-28T16:19:16;2.50;;;0.70;;
31126;SDS011;17775;57.948;12.514;2023-02-28T16:21:43;0.63;;;0.50;;
31126;SDS011;17775;57.948;12.514;2023-02-28T16:24:10;4.45;;;0.80;;
31126;SDS011;17775;57.948;12.514;2023-02-28T16:26:36;0.95;;;0.60;;
31126;SDS011;17775;57.948;12.514;2023-02-28T16:29:05;1.63;;;0.80;;
31126;SDS011;17775;57.948;12.514;2023-02-28T16:31:33;1.00;;;0.60;;
31126;SDS011;17775;57.948;12.514;2023-02-28T16:34:01;2.17;;;1.10;;
31126;SDS011;17775;57.948;12.514;2023-02-28T16:36:28;2.88;;;0.77;;
31126;SDS011;17775;57.948;12.514;2023-02-28T16:38:55;4.03;;;0.70;;
31126;SDS011;17775;57.948;12.514;2023-02-28T16:41:23;0.90;;;0.50;;
31126;SDS011;17775;57.948;12.514;2023-02-28T16:43:51;5.63;;;0.60;;
31126;SDS011;17775;57.948;12.514;2023-02-28T16:46:18;1.50;;;0.60;;
31126;SDS011;17775;57.948;12.514;2023-02-28T16:48:46;6.38;;;1.05;;
31126;SDS011;17775;57.948;12.514;2023-02-28T16:51:14;4.55;;;0.60;;
31126;SDS011;17775;57.948;12.514;2023-02-28T16:53:41;2.72;;;0.93;;
31126;SDS011;17775;57.948;12.514;2023-02-28T16:56:16;4.80;;;0.90;;
31126;SDS011;17775;57.948;12.514;2023-02-28T16:58:43;1.92;;;0.70;;
31126;SDS011;17775;57.948;12.514;2023-02-28T17:01:09;0.93;;;0.50;;
31126;SDS011;17775;57.948;12.514;2023-02-28T17:03:39;1.10;;;0.60;;
31126;SDS011;17775;57.948;12.514;2023-02-28T17:06:11;1.27;;;0.60;;
31126;SDS011;17775;57.948;12.514;2023-02-28T17:08:40;0.70;;;0.40;;
31126;SDS011;17775;57.948;12.514;2023-02-28T17:11:08;1.77;;;0.50;;
31126;SDS011;17775;57.948;12.514;2023-02-28T17:13:34;1.90;;;0.70;;
31126;SDS011;17775;57.948;12.514;2023-02-28T17:16:01;1.35;;;0.63;;